Arlington Heights, Ohio
Current Conditions -  °F | °C
As of 3:53 AM on Monday 22 Dec 2014 (Local Time) from KHAO Reporting Station
Overcast Overcast  
Wind Chill: -3°   Ceiling: 4700
Heat Index: -3°   Visibility: 7mi
Dew Point: -4°   Wind: 3mph
Humidity: 92%   Direction: 80°E
Pressure: 30.06"   Gusts: NA
Location:  39.236°N, 84.4599°W
Report Text: KHAO 220853Z AUTO 08003KT 7SM OVC047 M03/M04 A3006 RMK AO2 SLP186 I3000 T10281039 58014
Loading
Personal Weather Stations






























Interactive Weather Map New forecast layout! Learn more

10-Day Weather Forecast

Advertisements
Track Severe Weather on mobile